sensor_id;sensor_type;location;lat;lon;timestamp;temperature;humidity
28654;DHT22;24320;56.980;24.336;2023-06-24T00:00:12;14.70;99.90
28654;DHT22;24320;56.980;24.336;2023-06-24T00:02:40;14.60;99.90
28654;DHT22;24320;56.980;24.336;2023-06-24T00:05:10;14.60;99.90
28654;DHT22;24320;56.980;24.336;2023-06-24T00:07:38;14.50;99.90
28654;DHT22;24320;56.980;24.336;2023-06-24T00:10:15;14.50;99.90
28654;DHT22;24320;56.980;24.336;2023-06-24T00:12:44;14.40;99.90
28654;DHT22;24320;56.980;24.336;2023-06-24T00:15:11;14.40;99.90
28654;DHT22;24320;56.980;24.336;2023-06-24T00:17:39;14.30;99.90
28654;DHT22;24320;56.980;24.336;2023-06-24T00:20:06;14.30;99.90
28654;DHT22;24320;56.980;24.336;2023-06-24T00:22:38;14.30;99.90
28654;DHT22;24320;56.980;24.336;2023-06-24T00:25:11;14.30;99.90
28654;DHT22;24320;56.980;24.336;2023-06-24T00:27:38;14.30;99.90
28654;DHT22;24320;56.980;24.336;2023-06-24T00:30:05;14.30;99.90
28654;DHT22;24320;56.980;24.336;2023-06-24T00:32:33;14.30;99.90
28654;DHT22;24320;56.980;24.336;2023-06-24T00:35:00;14.20;99.90
28654;DHT22;24320;56.980;24.336;2023-06-24T00:37:27;14.20;99.90
28654;DHT22;24320;56.980;24.336;2023-06-24T00:39:54;14.20;99.90
28654;DHT22;24320;56.980;24.336;2023-06-24T00:42:21;14.10;99.90
28654;DHT22;24320;56.980;24.336;2023-06-24T00:44:48;14.10;99.90
28654;DHT22;24320;56.980;24.336;2023-06-24T00:47:15;14.20;99.90
28654;DHT22;24320;56.980;24.336;2023-06-24T00:49:42;14.20;99.90
28654;DHT22;24320;56.980;24.336;2023-06-24T00:52:12;14.20;99.90
28654;DHT22;24320;56.980;24.336;2023-06-24T00:54:43;14.10;99.90
28654;DHT22;24320;56.980;24.336;2023-06-24T00:57:12;14.10;99.90
28654;DHT22;24320;56.980;24.336;2023-06-24T00:59:40;14.10;99.90
28654;DHT22;24320;56.980;24.336;2023-06-24T01:02:10;14.00;99.90
28654;DHT22;24320;56.980;24.336;2023-06-24T01:04:38;14.00;99.90
28654;DHT22;24320;56.980;24.336;2023-06-24T01:07:05;14.00;99.90
28654;DHT22;24320;56.980;24.336;2023-06-24T01:09:34;14.00;99.90
28654;DHT22;24320;56.980;24.336;2023-06-24T01:12:01;14.00;99.90
28654;DHT22;24320;56.980;24.336;2023-06-24T01:14:29;14.00;99.90
28654;DHT22;24320;56.980;24.336;2023-06-24T01:17:01;14.00;99.90
28654;DHT22;24320;56.980;24.336;2023-06-24T01:20:01;14.10;99.90
28654;DHT22;24320;56.980;24.336;2023-06-24T01:25:44;14.00;99.90
28654;DHT22;24320;56.980;24.336;2023-06-24T01:28:24;14.00;99.90
28654;DHT22;24320;56.980;24.336;2023-06-24T01:33:35;13.90;99.90
28654;DHT22;24320;56.980;24.336;2023-06-24T01:36:05;13.90;99.90
28654;DHT22;24320;56.980;24.336;2023-06-24T01:38:46;13.90;99.90
28654;DHT22;24320;56.980;24.336;2023-06-24T01:41:21;13.90;99.90
28654;DHT22;24320;56.980;24.336;2023-06-24T01:43:52;13.90;99.90
28654;DHT22;24320;56.980;24.336;2023-06-24T01:46:25;13.90;99.90
28654;DHT22;24320;56.980;24.336;2023-06-24T01:48:59;14.00;99.90
28654;DHT22;24320;56.980;24.336;2023-06-24T01:51:29;14.00;99.90
28654;DHT22;24320;56.980;24.336;2023-06-24T01:54:04;14.00;99.90
28654;DHT22;24320;56.980;24.336;2023-06-24T01:56:34;14.00;99.90
28654;DHT22;24320;56.980;24.336;2023-06-24T01:59:03;14.00;99.90
28654;DHT22;24320;56.980;24.336;2023-06-24T02:01:35;14.00;99.90
28654;DHT22;24320;56.980;24.336;2023-06-24T02:04:08;14.00;99.90
28654;DHT22;24320;56.980;24.336;2023-06-24T02:06:36;14.10;99.90
28654;DHT22;24320;56.980;24.336;2023-06-24T02:09:05;14.10;99.90
28654;DHT22;24320;56.980;24.336;2023-06-24T02:11:33;14.20;99.90
28654;DHT22;24320;56.980;24.336;2023-06-24T02:14:02;14.20;99.90
28654;DHT22;24320;56.980;24.336;2023-06-24T02:16:32;14.30;99.90
28654;DHT22;24320;56.980;24.336;2023-06-24T02:19:01;14.40;99.90
28654;DHT22;24320;56.980;24.336;2023-06-24T02:21:29;14.50;99.90
28654;DHT22;24320;56.980;24.336;2023-06-24T02:23:57;14.50;99.90
28654;DHT22;24320;56.980;24.336;2023-06-24T02:26:25;14.60;99.90
28654;DHT22;24320;56.980;24.336;2023-06-24T02:28:53;14.60;99.90
28654;DHT22;24320;56.980;24.336;2023-06-24T02:31:21;14.70;99.90
28654;DHT22;24320;56.980;24.336;2023-06-24T02:33:48;14.80;99.90
28654;DHT22;24320;56.980;24.336;2023-06-24T02:36:15;14.90;99.90
28654;DHT22;24320;56.980;24.336;2023-06-24T02:38:42;15.00;99.90
28654;DHT22;24320;56.980;24.336;2023-06-24T02:41:09;15.10;99.90
28654;DHT22;24320;56.980;24.336;2023-06-24T02:43:36;15.10;99.90
28654;DHT22;24320;56.980;24.336;2023-06-24T02:46:05;15.20;99.90
28654;DHT22;24320;56.980;24.336;2023-06-24T02:48:34;15.20;99.90
28654;DHT22;24320;56.980;24.336;2023-06-24T02:51:05;15.30;99.90
28654;DHT22;24320;56.980;24.336;2023-06-24T02:53:34;15.60;99.90
28654;DHT22;24320;56.980;24.336;2023-06-24T02:56:04;15.90;99.90
28654;DHT22;24320;56.980;24.336;2023-06-24T02:58:31;16.30;99.90
28654;DHT22;24320;56.980;24.336;2023-06-24T03:01:01;16.60;99.90
28654;DHT22;24320;56.980;24.336;2023-06-24T03:03:34;16.90;99.90
28654;DHT22;24320;56.980;24.336;2023-06-24T03:06:02;17.20;99.90
28654;DHT22;24320;56.980;24.336;2023-06-24T03:08:30;17.40;99.90
28654;DHT22;24320;56.980;24.336;2023-06-24T03:10:58;17.70;99.90
28654;DHT22;24320;56.980;24.336;2023-06-24T03:13:25;18.10;99.90
28654;DHT22;24320;56.980;24.336;2023-06-24T03:15:52;18.80;99.90
28654;DHT22;24320;56.980;24.336;2023-06-24T03:18:19;19.50;99.90
28654;DHT22;24320;56.980;24.336;2023-06-24T03:20:47;20.20;99.90
28654;DHT22;24320;56.980;24.336;2023-06-24T03:23:14;20.90;99.90
28654;DHT22;24320;56.980;24.336;2023-06-24T03:25:41;21.70;99.90
28654;DHT22;24320;56.980;24.336;2023-06-24T03:28:08;22.10;99.90
28654;DHT22;24320;56.980;24.336;2023-06-24T03:30:35;22.00;99.90
28654;DHT22;24320;56.980;24.336;2023-06-24T03:33:02;21.60;99.90
28654;DHT22;24320;56.980;24.336;2023-06-24T03:35:30;21.30;99.90
28654;DHT22;24320;56.980;24.336;2023-06-24T03:38:00;21.20;99.90
28654;DHT22;24320;56.980;24.336;2023-06-24T03:40:27;21.40;99.90
28654;DHT22;24320;56.980;24.336;2023-06-24T03:42:54;21.80;99.90
28654;DHT22;24320;56.980;24.336;2023-06-24T03:45:21;22.00;99.90
28654;DHT22;24320;56.980;24.336;2023-06-24T03:47:51;22.00;99.90
28654;DHT22;24320;56.980;24.336;2023-06-24T03:50:18;22.10;99.90
28654;DHT22;24320;56.980;24.336;2023-06-24T03:52:45;22.10;99.90
28654;DHT22;24320;56.980;24.336;2023-06-24T03:55:12;22.00;99.90
28654;DHT22;24320;56.980;24.336;2023-06-24T03:57:39;21.90;99.90
28654;DHT22;24320;56.980;24.336;2023-06-24T04:00:06;22.00;99.90
28654;DHT22;24320;56.980;24.336;2023-06-24T04:02:42;22.10;99.90
28654;DHT22;24320;56.980;24.336;2023-06-24T04:05:10;22.10;99.90
28654;DHT22;24320;56.980;24.336;2023-06-24T04:07:37;22.30;99.90
28654;DHT22;24320;56.980;24.336;2023-06-24T04:10:06;22.40;99.90
28654;DHT22;24320;56.980;24.336;2023-06-24T04:12:36;22.40;99.90
28654;DHT22;24320;56.980;24.336;2023-06-24T04:15:03;22.30;99.90
28654;DHT22;24320;56.980;24.336;2023-06-24T04:17:31;21.90;99.90
28654;DHT22;24320;56.980;24.336;2023-06-24T04:19:58;21.60;99.90
28654;DHT22;24320;56.980;24.336;2023-06-24T04:22:26;21.40;99.90
28654;DHT22;24320;56.980;24.336;2023-06-24T04:24:53;21.10;99.90
28654;DHT22;24320;56.980;24.336;2023-06-24T04:27:20;20.80;99.90
28654;DHT22;24320;56.980;24.336;2023-06-24T04:29:47;20.80;99.90
28654;DHT22;24320;56.980;24.336;2023-06-24T04:32:14;20.80;99.90
28654;DHT22;24320;56.980;24.336;2023-06-24T04:34:41;20.80;99.90
28654;DHT22;24320;56.980;24.336;2023-06-24T04:37:08;20.90;99.90
28654;DHT22;24320;56.980;24.336;2023-06-24T04:39:35;21.00;99.90
28654;DHT22;24320;56.980;24.336;2023-06-24T04:42:02;21.00;99.90
28654;DHT22;24320;56.980;24.336;2023-06-24T04:44:29;21.00;99.90
28654;DHT22;24320;56.980;24.336;2023-06-24T04:46:56;20.80;99.90
28654;DHT22;24320;56.980;24.336;2023-06-24T04:49:23;20.70;99.90
28654;DHT22;24320;56.980;24.336;2023-06-24T04:51:50;20.70;99.90
28654;DHT22;24320;56.980;24.336;2023-06-24T04:54:18;20.70;99.90
28654;DHT22;24320;56.980;24.336;2023-06-24T04:56:45;20.80;99.90
28654;DHT22;24320;56.980;24.336;2023-06-24T04:59:15;21.10;99.90
28654;DHT22;24320;56.980;24.336;2023-06-24T05:01:42;21.40;99.90
28654;DHT22;24320;56.980;24.336;2023-06-24T05:04:10;21.60;99.90
28654;DHT22;24320;56.980;24.336;2023-06-24T05:06:36;21.90;99.90
28654;DHT22;24320;56.980;24.336;2023-06-24T05:09:04;22.00;99.90
28654;DHT22;24320;56.980;24.336;2023-06-24T05:11:31;21.80;99.90
28654;DHT22;24320;56.980;24.336;2023-06-24T05:13:58;21.70;99.90
28654;DHT22;24320;56.980;24.336;2023-06-24T05:16:25;21.40;99.90
28654;DHT22;24320;56.980;24.336;2023-06-24T05:18:52;21.00;99.90
28654;DHT22;24320;56.980;24.336;2023-06-24T05:21:19;20.70;99.90
28654;DHT22;24320;56.980;24.336;2023-06-24T05:23:46;20.50;99.90
28654;DHT22;24320;56.980;24.336;2023-06-24T07:26:12;27.30;97.90
28654;DHT22;24320;56.980;24.336;2023-06-24T07:28:39;27.10;96.10
28654;DHT22;24320;56.980;24.336;2023-06-24T07:31:07;26.60;97.20
28654;DHT22;24320;56.980;24.336;2023-06-24T07:33:34;26.50;96.20
28654;DHT22;24320;56.980;24.336;2023-06-24T07:36:01;26.50;96.90
28654;DHT22;24320;56.980;24.336;2023-06-24T07:38:28;26.50;97.40
28654;DHT22;24320;56.980;24.336;2023-06-24T07:40:56;26.60;97.50
28654;DHT22;24320;56.980;24.336;2023-06-24T07:43:23;26.80;96.40
28654;DHT22;24320;56.980;24.336;2023-06-24T07:45:50;26.60;96.10
28654;DHT22;24320;56.980;24.336;2023-06-24T07:48:17;26.50;94.80
28654;DHT22;24320;56.980;24.336;2023-06-24T07:50:44;26.10;96.20
28654;DHT22;24320;56.980;24.336;2023-06-24T07:53:11;25.80;96.20
28654;DHT22;24320;56.980;24.336;2023-06-24T07:55:38;25.70;97.40
28654;DHT22;24320;56.980;24.336;2023-06-24T07:58:05;25.60;96.80
28654;DHT22;24320;56.980;24.336;2023-06-24T08:00:33;25.30;96.10
28654;DHT22;24320;56.980;24.336;2023-06-24T08:03:01;25.20;98.60
28654;DHT22;24320;56.980;24.336;2023-06-24T08:05:29;25.40;96.70
28654;DHT22;24320;56.980;24.336;2023-06-24T08:07:56;25.20;96.60
28654;DHT22;24320;56.980;24.336;2023-06-24T08:10:23;25.10;97.70
28654;DHT22;24320;56.980;24.336;2023-06-24T08:12:50;25.10;97.20
28654;DHT22;24320;56.980;24.336;2023-06-24T08:15:17;25.20;95.80
28654;DHT22;24320;56.980;24.336;2023-06-24T08:17:44;25.20;94.90
28654;DHT22;24320;56.980;24.336;2023-06-24T08:20:17;25.30;94.30
28654;DHT22;24320;56.980;24.336;2023-06-24T08:22:44;25.30;94.30
28654;DHT22;24320;56.980;24.336;2023-06-24T08:25:11;25.50;94.40
28654;DHT22;24320;56.980;24.336;2023-06-24T08:27:38;25.90;92.20
28654;DHT22;24320;56.980;24.336;2023-06-24T08:30:06;25.90;91.70
28654;DHT22;24320;56.980;24.336;2023-06-24T08:32:33;26.00;92.50
28654;DHT22;24320;56.980;24.336;2023-06-24T08:35:00;26.10;92.50
28654;DHT22;24320;56.980;24.336;2023-06-24T08:37:27;25.90;87.80
28654;DHT22;24320;56.980;24.336;2023-06-24T08:39:54;25.60;90.00
28654;DHT22;24320;56.980;24.336;2023-06-24T08:42:22;25.40;90.50
28654;DHT22;24320;56.980;24.336;2023-06-24T08:44:50;25.60;87.10
28654;DHT22;24320;56.980;24.336;2023-06-24T08:47:18;25.50;86.10
28654;DHT22;24320;56.980;24.336;2023-06-24T08:50:13;25.30;84.50
28654;DHT22;24320;56.980;24.336;2023-06-24T08:52:43;25.00;83.70
28654;DHT22;24320;56.980;24.336;2023-06-24T08:55:13;25.00;85.50
28654;DHT22;24320;56.980;24.336;2023-06-24T08:57:42;24.90;81.10
28654;DHT22;24320;56.980;24.336;2023-06-24T09:00:09;24.50;82.90
28654;DHT22;24320;56.980;24.336;2023-06-24T09:02:38;24.50;85.20
28654;DHT22;24320;56.980;24.336;2023-06-24T09:05:07;24.60;86.30
28654;DHT22;24320;56.980;24.336;2023-06-24T09:07:34;24.90;83.00
28654;DHT22;24320;56.980;24.336;2023-06-24T09:10:02;24.90;83.40
28654;DHT22;24320;56.980;24.336;2023-06-24T09:12:32;24.90;85.10
28654;DHT22;24320;56.980;24.336;2023-06-24T09:14:59;24.70;84.30
28654;DHT22;24320;56.980;24.336;2023-06-24T09:17:26;24.70;83.40
28654;DHT22;24320;56.980;24.336;2023-06-24T09:20:04;24.70;83.90
28654;DHT22;24320;56.980;24.336;2023-06-24T09:22:32;24.70;84.20
28654;DHT22;24320;56.980;24.336;2023-06-24T09:25:01;24.70;81.20
28654;DHT22;24320;56.980;24.336;2023-06-24T09:27:31;24.40;81.40
28654;DHT22;24320;56.980;24.336;2023-06-24T09:29:59;24.10;86.00
28654;DHT22;24320;56.980;24.336;2023-06-24T09:32:29;24.10;83.00
28654;DHT22;24320;56.980;24.336;2023-06-24T09:34:57;24.10;82.40
28654;DHT22;24320;56.980;24.336;2023-06-24T09:37:27;24.20;82.80
28654;DHT22;24320;56.980;24.336;2023-06-24T09:39:58;24.10;79.90
28654;DHT22;24320;56.980;24.336;2023-06-24T09:42:25;23.90;80.30
28654;DHT22;24320;56.980;24.336;2023-06-24T09:44:56;23.80;84.50
28654;DHT22;24320;56.980;24.336;2023-06-24T09:47:23;23.90;82.00
28654;DHT22;24320;56.980;24.336;2023-06-24T09:49:55;24.10;84.00
28654;DHT22;24320;56.980;24.336;2023-06-24T09:52:22;24.40;83.40
28654;DHT22;24320;56.980;24.336;2023-06-24T09:54:51;24.60;77.20
28654;DHT22;24320;56.980;24.336;2023-06-24T09:57:31;24.40;75.00
28654;DHT22;24320;56.980;24.336;2023-06-24T10:00:00;24.00;78.40
28654;DHT22;24320;56.980;24.336;2023-06-24T10:02:29;24.00;79.30
28654;DHT22;24320;56.980;24.336;2023-06-24T10:04:59;24.10;80.40
28654;DHT22;24320;56.980;24.336;2023-06-24T10:07:26;24.10;77.00
28654;DHT22;24320;56.980;24.336;2023-06-24T10:09:54;23.90;75.80
28654;DHT22;24320;56.980;24.336;2023-06-24T10:12:21;23.70;75.10
28654;DHT22;24320;56.980;24.336;2023-06-24T10:14:48;23.60;75.30
28654;DHT22;24320;56.980;24.336;2023-06-24T10:17:16;23.50;75.10
28654;DHT22;24320;56.980;24.336;2023-06-24T10:19:44;23.50;75.70
28654;DHT22;24320;56.980;24.336;2023-06-24T10:22:11;23.70;76.70
28654;DHT22;24320;56.980;24.336;2023-06-24T10:24:40;23.80;76.10
28654;DHT22;24320;56.980;24.336;2023-06-24T10:27:18;23.90;76.90
28654;DHT22;24320;56.980;24.336;2023-06-24T10:29:50;24.20;75.40
28654;DHT22;24320;56.980;24.336;2023-06-24T10:32:18;24.30;72.00
28654;DHT22;24320;56.980;24.336;2023-06-24T10:34:47;24.10;73.40
28654;DHT22;24320;56.980;24.336;2023-06-24T10:37:36;24.00;73.60
28654;DHT22;24320;56.980;24.336;2023-06-24T10:40:04;23.90;72.80
28654;DHT22;24320;56.980;24.336;2023-06-24T11:43:52;23.30;74.10
28654;DHT22;24320;56.980;24.336;2023-06-24T11:49:13;23.30;75.00
28654;DHT22;24320;56.980;24.336;2023-06-24T11:51:49;23.40;74.00
28654;DHT22;24320;56.980;24.336;2023-06-24T11:54:18;23.40;74.30
28654;DHT22;24320;56.980;24.336;2023-06-24T11:56:52;23.50;75.10
28654;DHT22;24320;56.980;24.336;2023-06-24T11:59:23;23.60;74.20
28654;DHT22;24320;56.980;24.336;2023-06-24T12:01:55;23.60;74.80
28654;DHT22;24320;56.980;24.336;2023-06-24T12:04:28;23.60;77.80
28654;DHT22;24320;56.980;24.336;2023-06-24T12:06:56;23.90;77.30
28654;DHT22;24320;56.980;24.336;2023-06-24T12:09:23;24.00;76.30
28654;DHT22;24320;56.980;24.336;2023-06-24T12:11:51;24.10;72.60
28654;DHT22;24320;56.980;24.336;2023-06-24T12:14:19;23.90;74.80
28654;DHT22;24320;56.980;24.336;2023-06-24T12:16:46;23.80;75.80
28654;DHT22;24320;56.980;24.336;2023-06-24T12:19:13;23.60;75.10
28654;DHT22;24320;56.980;24.336;2023-06-24T12:21:40;23.40;74.60
28654;DHT22;24320;56.980;24.336;2023-06-24T12:24:07;23.40;73.40
28654;DHT22;24320;56.980;24.336;2023-06-24T12:26:35;23.40;74.40
28654;DHT22;24320;56.980;24.336;2023-06-24T12:29:03;23.30;75.00
28654;DHT22;24320;56.980;24.336;2023-06-24T12:31:31;23.40;74.70
28654;DHT22;24320;56.980;24.336;2023-06-24T12:33:58;23.30;75.70
28654;DHT22;24320;56.980;24.336;2023-06-24T12:36:25;23.40;76.60
28654;DHT22;24320;56.980;24.336;2023-06-24T12:38:52;23.60;73.80
28654;DHT22;24320;56.980;24.336;2023-06-24T12:41:19;23.70;76.10
28654;DHT22;24320;56.980;24.336;2023-06-24T12:43:46;23.80;76.20
28654;DHT22;24320;56.980;24.336;2023-06-24T12:46:13;23.90;75.90
28654;DHT22;24320;56.980;24.336;2023-06-24T12:48:40;24.00;76.10
28654;DHT22;24320;56.980;24.336;2023-06-24T12:51:07;24.10;72.10
28654;DHT22;24320;56.980;24.336;2023-06-24T12:53:34;23.90;73.60
28654;DHT22;24320;56.980;24.336;2023-06-24T12:56:01;23.80;70.60
28654;DHT22;24320;56.980;24.336;2023-06-24T12:58:29;23.70;69.90
28654;DHT22;24320;56.980;24.336;2023-06-24T13:00:56;23.50;69.30
28654;DHT22;24320;56.980;24.336;2023-06-24T13:03:23;23.40;69.60
28654;DHT22;24320;56.980;24.336;2023-06-24T13:05:50;23.40;72.50
28654;DHT22;24320;56.980;24.336;2023-06-24T13:08:17;23.50;69.30
28654;DHT22;24320;56.980;24.336;2023-06-24T13:10:44;23.60;72.10
28654;DHT22;24320;56.980;24.336;2023-06-24T13:13:11;23.60;70.00
28654;DHT22;24320;56.980;24.336;2023-06-24T13:15:38;23.70;71.00
28654;DHT22;24320;56.980;24.336;2023-06-24T13:18:05;23.70;70.40
28654;DHT22;24320;56.980;24.336;2023-06-24T13:20:32;23.70;70.80
28654;DHT22;24320;56.980;24.336;2023-06-24T13:23:00;23.60;69.40
28654;DHT22;24320;56.980;24.336;2023-06-24T13:25:27;23.40;70.20
28654;DHT22;24320;56.980;24.336;2023-06-24T13:27:55;23.30;70.70
28654;DHT22;24320;56.980;24.336;2023-06-24T13:30:22;23.30;72.00
28654;DHT22;24320;56.980;24.336;2023-06-24T13:32:49;23.30;73.10
28654;DHT22;24320;56.980;24.336;2023-06-24T13:35:16;23.30;71.80
28654;DHT22;24320;56.980;24.336;2023-06-24T13:37:43;23.20;72.70
28654;DHT22;24320;56.980;24.336;2023-06-24T13:40:11;23.10;72.20
28654;DHT22;24320;56.980;24.336;2023-06-24T13:42:38;23.00;73.00
28654;DHT22;24320;56.980;24.336;2023-06-24T13:45:06;23.00;73.40
28654;DHT22;24320;56.980;24.336;2023-06-24T13:47:33;23.00;75.00
28654;DHT22;24320;56.980;24.336;2023-06-24T13:50:00;23.00;74.90
28654;DHT22;24320;56.980;24.336;2023-06-24T13:52:27;23.00;75.30
28654;DHT22;24320;56.980;24.336;2023-06-24T13:54:55;23.00;75.70
28654;DHT22;24320;56.980;24.336;2023-06-24T13:57:22;22.90;76.10
28654;DHT22;24320;56.980;24.336;2023-06-24T13:59:49;22.80;76.60
28654;DHT22;24320;56.980;24.336;2023-06-24T15:00:41;22.80;79.70
28654;DHT22;24320;56.980;24.336;2023-06-24T15:03:08;22.80;78.90
28654;DHT22;24320;56.980;24.336;2023-06-24T15:05:36;22.70;80.80
28654;DHT22;24320;56.980;24.336;2023-06-24T15:08:03;22.70;82.00
28654;DHT22;24320;56.980;24.336;2023-06-24T15:10:30;22.60;79.90
28654;DHT22;24320;56.980;24.336;2023-06-24T15:12:57;22.60;81.80
28654;DHT22;24320;56.980;24.336;2023-06-24T15:15:24;22.60;83.30
28654;DHT22;24320;56.980;24.336;2023-06-24T15:17:51;22.60;82.70
28654;DHT22;24320;56.980;24.336;2023-06-24T15:20:18;22.60;81.60
28654;DHT22;24320;56.980;24.336;2023-06-24T15:22:45;22.40;81.40
28654;DHT22;24320;56.980;24.336;2023-06-24T15:25:13;22.10;80.50
28654;DHT22;24320;56.980;24.336;2023-06-24T15:27:40;22.00;82.80
28654;DHT22;24320;56.980;24.336;2023-06-24T15:30:07;21.80;83.30
28654;DHT22;24320;56.980;24.336;2023-06-24T15:32:34;21.70;84.20
28654;DHT22;24320;56.980;24.336;2023-06-24T15:35:02;21.60;85.30
28654;DHT22;24320;56.980;24.336;2023-06-24T15:37:30;21.60;84.10
28654;DHT22;24320;56.980;24.336;2023-06-24T15:39:58;21.70;85.20
28654;DHT22;24320;56.980;24.336;2023-06-24T15:42:25;21.80;86.50
28654;DHT22;24320;56.980;24.336;2023-06-24T15:44:52;21.80;85.00
28654;DHT22;24320;56.980;24.336;2023-06-24T15:47:19;21.90;87.10
28654;DHT22;24320;56.980;24.336;2023-06-24T15:49:47;21.80;87.70
28654;DHT22;24320;56.980;24.336;2023-06-24T15:52:14;21.60;88.20
28654;DHT22;24320;56.980;24.336;2023-06-24T15:54:41;21.50;89.70
28654;DHT22;24320;56.980;24.336;2023-06-24T15:57:08;21.40;90.60
28654;DHT22;24320;56.980;24.336;2023-06-24T15:59:35;21.40;91.10
28654;DHT22;24320;56.980;24.336;2023-06-24T16:02:05;21.40;91.20
28654;DHT22;24320;56.980;24.336;2023-06-24T16:04:32;21.50;91.30
28654;DHT22;24320;56.980;24.336;2023-06-24T16:07:00;21.50;92.20
28654;DHT22;24320;56.980;24.336;2023-06-24T16:09:27;21.50;92.30
28654;DHT22;24320;56.980;24.336;2023-06-24T16:11:55;21.50;92.50
28654;DHT22;24320;56.980;24.336;2023-06-24T16:14:22;21.50;93.00
28654;DHT22;24320;56.980;24.336;2023-06-24T16:16:50;21.40;93.30
28654;DHT22;24320;56.980;24.336;2023-06-24T16:19:18;21.40;94.20
28654;DHT22;24320;56.980;24.336;2023-06-24T16:21:46;21.30;94.00
28654;DHT22;24320;56.980;24.336;2023-06-24T16:24:13;21.20;94.70
28654;DHT22;24320;56.980;24.336;2023-06-24T16:26:40;21.20;95.10
28654;DHT22;24320;56.980;24.336;2023-06-24T16:29:17;21.40;94.60
28654;DHT22;24320;56.980;24.336;2023-06-24T16:31:44;21.50;94.80
28654;DHT22;24320;56.980;24.336;2023-06-24T16:34:11;21.60;95.00
28654;DHT22;24320;56.980;24.336;2023-06-24T16:36:49;21.80;95.00
28654;DHT22;24320;56.980;24.336;2023-06-24T16:39:17;21.80;93.90
28654;DHT22;24320;56.980;24.336;2023-06-24T16:41:45;21.70;93.50
28654;DHT22;24320;56.980;24.336;2023-06-24T16:44:12;21.70;93.40
28654;DHT22;24320;56.980;24.336;2023-06-24T16:46:39;21.60;93.00
28654;DHT22;24320;56.980;24.336;2023-06-24T16:49:07;21.50;93.70
28654;DHT22;24320;56.980;24.336;2023-06-24T16:51:34;21.40;93.30
28654;DHT22;24320;56.980;24.336;2023-06-24T16:54:02;21.50;93.40
28654;DHT22;24320;56.980;24.336;2023-06-24T16:56:31;21.50;92.70
28654;DHT22;24320;56.980;24.336;2023-06-24T16:58:59;21.40;93.20
28654;DHT22;24320;56.980;24.336;2023-06-24T17:01:27;21.30;92.90
28654;DHT22;24320;56.980;24.336;2023-06-24T17:03:54;21.20;93.20
28654;DHT22;24320;56.980;24.336;2023-06-24T17:06:21;21.10;93.40
28654;DHT22;24320;56.980;24.336;2023-06-24T17:08:48;21.00;94.30
28654;DHT22;24320;56.980;24.336;2023-06-24T17:11:15;20.90;95.00
28654;DHT22;24320;56.980;24.336;2023-06-24T17:13:48;20.70;95.30
28654;DHT22;24320;56.980;24.336;2023-06-24T17:16:15;20.50;96.10
28654;DHT22;24320;56.980;24.336;2023-06-24T17:18:43;20.40;96.10
28654;DHT22;24320;56.980;24.336;2023-06-24T17:21:10;20.30;96.00
28654;DHT22;24320;56.980;24.336;2023-06-24T17:23:37;20.10;96.30
28654;DHT22;24320;56.980;24.336;2023-06-24T17:26:04;20.10;97.20
28654;DHT22;24320;56.980;24.336;2023-06-24T17:28:31;19.90;97.70
28654;DHT22;24320;56.980;24.336;2023-06-24T17:30:58;19.80;98.40
28654;DHT22;24320;56.980;24.336;2023-06-24T17:33:25;19.80;99.80
28654;DHT22;24320;56.980;24.336;2023-06-24T17:35:52;19.70;99.90
28654;DHT22;24320;56.980;24.336;2023-06-24T17:38:19;19.60;99.90
28654;DHT22;24320;56.980;24.336;2023-06-24T17:40:46;19.60;99.90
28654;DHT22;24320;56.980;24.336;2023-06-24T17:43:13;19.50;99.90
28654;DHT22;24320;56.980;24.336;2023-06-24T17:45:40;19.40;99.90
28654;DHT22;24320;56.980;24.336;2023-06-24T17:48:07;19.30;99.90
28654;DHT22;24320;56.980;24.336;2023-06-24T17:50:35;19.20;99.90
28654;DHT22;24320;56.980;24.336;2023-06-24T17:53:03;19.10;99.90
28654;DHT22;24320;56.980;24.336;2023-06-24T17:55:30;19.00;99.90
28654;DHT22;24320;56.980;24.336;2023-06-24T17:58:03;18.90;99.90
28654;DHT22;24320;56.980;24.336;2023-06-24T18:00:32;18.80;99.90
28654;DHT22;24320;56.980;24.336;2023-06-24T18:03:08;18.70;99.90
28654;DHT22;24320;56.980;24.336;2023-06-24T18:05:35;18.60;99.90
28654;DHT22;24320;56.980;24.336;2023-06-24T18:08:02;18.60;99.90
28654;DHT22;24320;56.980;24.336;2023-06-24T18:10:30;18.60;99.90
28654;DHT22;24320;56.980;24.336;2023-06-24T18:12:57;18.50;99.90
28654;DHT22;24320;56.980;24.336;2023-06-24T18:15:24;18.50;99.90
28654;DHT22;24320;56.980;24.336;2023-06-24T18:17:51;18.40;99.90
28654;DHT22;24320;56.980;24.336;2023-06-24T18:20:25;18.40;99.90
28654;DHT22;24320;56.980;24.336;2023-06-24T18:22:53;18.30;99.90
28654;DHT22;24320;56.980;24.336;2023-06-24T18:25:20;18.30;99.90
28654;DHT22;24320;56.980;24.336;2023-06-24T18:27:47;18.30;99.90
28654;DHT22;24320;56.980;24.336;2023-06-24T18:30:15;18.30;99.90
28654;DHT22;24320;56.980;24.336;2023-06-24T18:32:42;18.30;99.90
28654;DHT22;24320;56.980;24.336;2023-06-24T18:35:09;18.20;99.90
28654;DHT22;24320;56.980;24.336;2023-06-24T18:37:36;18.20;99.90
28654;DHT22;24320;56.980;24.336;2023-06-24T18:40:04;18.10;99.90
28654;DHT22;24320;56.980;24.336;2023-06-24T18:42:31;18.10;99.90
28654;DHT22;24320;56.980;24.336;2023-06-24T18:44:58;18.00;99.90
28654;DHT22;24320;56.980;24.336;2023-06-24T18:47:25;18.00;99.90
28654;DHT22;24320;56.980;24.336;2023-06-24T18:49:53;17.90;99.90
28654;DHT22;24320;56.980;24.336;2023-06-24T18:52:19;18.00;99.90
28654;DHT22;24320;56.980;24.336;2023-06-24T18:54:46;17.90;99.90
28654;DHT22;24320;56.980;24.336;2023-06-24T18:57:14;17.90;99.90
28654;DHT22;24320;56.980;24.336;2023-06-24T18:59:42;17.80;99.90
28654;DHT22;24320;56.980;24.336;2023-06-24T19:02:09;17.80;99.90
28654;DHT22;24320;56.980;24.336;2023-06-24T19:04:37;17.80;99.90
28654;DHT22;24320;56.980;24.336;2023-06-24T19:07:04;17.70;99.90
28654;DHT22;24320;56.980;24.336;2023-06-24T19:09:31;17.70;99.90
28654;DHT22;24320;56.980;24.336;2023-06-24T19:11:58;17.60;99.90
28654;DHT22;24320;56.980;24.336;2023-06-24T19:14:26;17.50;99.90
28654;DHT22;24320;56.980;24.336;2023-06-24T19:16:53;17.50;99.90
28654;DHT22;24320;56.980;24.336;2023-06-24T19:19:20;17.40;99.90
28654;DHT22;24320;56.980;24.336;2023-06-24T19:21:47;17.40;99.90
28654;DHT22;24320;56.980;24.336;2023-06-24T19:24:15;17.50;99.90
28654;DHT22;24320;56.980;24.336;2023-06-24T19:26:43;17.40;99.90
28654;DHT22;24320;56.980;24.336;2023-06-24T19:29:10;17.30;99.90